KBNA/BNA METAR and TAF weather

Enter ICAO airport designator
Station Type Date Time Source
KBNA METAR 2022/01/23 10:53 UTC NOAA

KBNA 231053Z 18003KT 10SM FEW250 M06/M10 A3015 RMK AO2 SLP215 T10611100 $


Station Type Date Time Source
KBNA Decoded METAR 2022/01/23 10:53 UTC NOAA

NASHVILLE INTERNATIONAL AIRPORT, TN, United States (KBNA) 36-07N 086-41W 210M
Jan 23, 2022 - 05:53 AM EST / 2022.01.23 1053 UTC
Wind: from the S (180 degrees) at 3 MPH (3 KT):0
Visibility: 10 mile(s):0
Sky conditions: mostly clear
Temperature: 21.0 F (-6.1 C)
Dew Point: 14.0 F (-10.0 C)
Relative Humidity: 73%
Pressure (altimeter): 30.15 in. Hg (1020 hPa)
ob: KBNA 231053Z 18003KT 10SM FEW250 M06/M10 A3015 RMK AO2 SLP215 T10611100
cycle: 11

Station Type Date Time Source
KBNA TAF 2022/01/23 12:22 UTC NOAA

TAF KBNA 231120Z 2312/2412 VRB03KT P6SM SCT250
FM231500 23009G15KT P6SM SCT250
FM232000 26010G17KT P6SM SCT250
FM240100 33005KT P6SM SCT250

Example: see airport list